Time;durP1;ratioP1;P1;durP2;ratioP2;P2;SDS_P1;SDS_P2;PMS_P1;PMS_P2;Temp;Humidity;BMP_temperature;BMP_pressure;BME280_temperature;BME280_humidity;BME280_pressure;Samples;Min_cycle;Max_cycle;Signal;HPM_P1;HPM_P2
2021/04/04 00:00:40;;;;;;;7.25;5.78;;;;;;;9.60;55.41;101473.59;4835858;28;97950;-62
2021/04/04 00:03:07;;;;;;;6.78;5.50;;;;;;;9.58;55.35;101478.38;4805591;28;98871;-60
2021/04/04 00:05:34;;;;;;;7.95;5.78;;;;;;;9.56;55.29;101470.56;4837737;28;99170;-60
2021/04/04 00:08:00;;;;;;;8.63;6.07;;;;;;;9.55;55.25;101477.00;4824236;28;102060;-63
2021/04/04 00:10:26;;;;;;;6.97;5.60;;;;;;;9.50;54.92;101470.66;4824750;28;97818;-60
2021/04/04 00:12:52;;;;;;;8.05;5.97;;;;;;;9.48;55.34;101470.91;4825049;28;98356;-61
2021/04/04 00:15:18;;;;;;;7.20;5.43;;;;;;;9.48;55.14;101480.88;4824200;28;98492;-63
2021/04/04 00:17:44;;;;;;;7.82;5.78;;;;;;;9.46;55.09;101469.50;4824338;28;114161;-63
2021/04/04 00:20:17;;;;;;;9.65;6.63;;;;;;;9.42;55.07;101477.22;4824761;28;117498;-63
2021/04/04 00:22:43;;;;;;;7.18;5.78;;;;;;;9.40;55.02;101475.84;4808449;28;98260;-60
2021/04/04 00:25:11;;;;;;;8.27;5.70;;;;;;;9.36;55.91;101472.81;4822940;28;98630;-63
2021/04/04 00:27:37;;;;;;;7.20;5.55;;;;;;;9.38;55.27;101476.06;4825153;28;97878;-60
2021/04/04 00:30:14;;;;;;;7.63;5.53;;;;;;;9.31;55.50;101473.50;4824192;28;108208;-59
2021/04/04 00:32:40;;;;;;;8.27;5.75;;;;;;;9.31;55.20;101473.50;4824148;28;116129;-63
2021/04/04 00:35:16;;;;;;;7.15;5.55;;;;;;;9.31;55.21;101478.03;4824293;28;108806;-59
2021/04/04 00:37:42;;;;;;;7.10;5.20;;;;;;;9.27;55.25;101474.19;4838940;28;99557;-63
2021/04/04 00:40:11;;;;;;;7.15;5.40;;;;;;;9.25;55.60;101476.31;4822485;28;104013;-60
2021/04/04 00:42:37;;;;;;;6.18;5.40;;;;;;;9.25;55.55;101476.31;4823451;28;98319;-61
2021/04/04 00:45:32;;;;;;;6.75;5.05;;;;;;;9.20;55.71;101468.13;4822168;28;99136;-63
2021/04/04 00:47:58;;;;;;;8.18;5.40;;;;;;;9.20;54.82;101471.63;4823720;28;97884;-60
2021/04/04 00:50:27;;;;;;;7.68;5.32;;;;;;;9.18;55.56;101475.59;4837704;28;117146;-63
2021/04/04 00:52:53;;;;;;;6.82;5.15;;;;;;;9.18;55.12;101473.72;4822934;28;99489;-60
2021/04/04 00:55:20;;;;;;;6.95;5.25;;;;;;;9.13;55.53;101470.91;4806963;28;99139;-63
2021/04/04 00:57:46;;;;;;;6.53;5.07;;;;;;;9.12;55.35;101476.53;4823804;28;102927;-63
2021/04/04 01:00:14;;;;;;;6.13;5.00;;;;;;;9.14;55.54;101482.50;4824863;28;97766;-59
2021/04/04 01:02:41;;;;;;;6.72;5.15;;;;;;;9.15;54.96;101476.06;4823921;28;114597;-63
2021/04/04 01:05:10;;;;;;;6.15;5.13;;;;;;;9.12;55.02;101477.38;4824399;28;100878;-59
2021/04/04 01:07:37;;;;;;;6.78;5.22;;;;;;;9.08;55.22;101470.81;4822116;28;97986;-63
2021/04/04 01:10:08;;;;;;;6.15;4.60;;;;;;;9.05;55.34;101473.97;4824005;28;98103;-59
2021/04/04 01:13:06;;;;;;;6.18;4.90;;;;;;;9.03;55.13;101471.50;4790667;28;101163;-63
2021/04/04 01:16:10;;;;;;;6.78;5.20;;;;;;;9.00;55.23;101471.97;4793519;28;98919;-63
2021/04/04 01:18:50;;;;;;;6.50;5.20;;;;;;;9.00;55.08;101469.28;4801883;29;98290;-60
2021/04/04 01:21:28;;;;;;;7.13;5.10;;;;;;;8.98;55.42;101466.00;4790108;28;97835;-59
2021/04/04 01:24:22;;;;;;;6.82;5.28;;;;;;;8.95;55.66;101473.69;4821457;28;98700;-63
2021/04/04 01:27:04;;;;;;;6.47;5.03;;;;;;;8.96;55.26;101464.56;4823779;28;97703;-63
2021/04/04 01:29:31;;;;;;;7.57;5.13;;;;;;;8.94;54.90;101466.69;4808773;28;98683;-59
2021/04/04 01:31:57;;;;;;;7.45;5.25;;;;;;;8.94;55.35;101469.38;4822261;28;99778;-59
2021/04/04 01:34:25;;;;;;;7.18;5.28;;;;;;;8.91;54.90;101464.47;4790968;28;98423;-59
2021/04/04 01:36:53;;;;;;;6.50;5.13;;;;;;;8.90;55.25;101468.22;4822328;28;97941;-63
2021/04/04 01:39:23;;;;;;;7.45;5.18;;;;;;;8.87;55.05;101468.66;4821759;28;101432;-59
2021/04/04 01:41:50;;;;;;;6.65;5.20;;;;;;;8.87;55.24;101471.34;4822115;28;97827;-60
2021/04/04 01:44:21;;;;;;;6.97;4.88;;;;;;;8.80;55.17;101479.53;4805486;28;98531;-60
2021/04/04 01:46:48;;;;;;;7.28;5.05;;;;;;;8.84;54.97;101469.94;4821404;28;99067;-63
2021/04/04 01:49:15;;;;;;;6.57;4.90;;;;;;;8.81;54.99;101473.94;4806109;28;97883;-64
2021/04/04 01:51:44;;;;;;;5.60;5.00;;;;;;;8.80;55.00;101479.53;4806674;28;98039;-60
2021/04/04 01:54:10;;;;;;;6.45;4.80;;;;;;;8.78;55.15;101474.38;4805050;28;121339;-59
2021/04/04 01:56:36;;;;;;;6.65;4.97;;;;;;;8.80;54.77;101472.28;4805931;28;119469;-59
2021/04/04 01:59:03;;;;;;;5.38;4.28;;;;;;;8.78;54.70;101471.69;4837514;28;98378;-60
2021/04/04 02:01:30;;;;;;;5.93;4.57;;;;;;;8.78;55.18;101474.38;4821991;28;97865;-63
2021/04/04 02:04:02;;;;;;;6.53;4.60;;;;;;;8.69;54.71;101475.78;4821202;28;98249;-63
2021/04/04 02:06:28;;;;;;;5.72;4.60;;;;;;;8.74;54.94;101478.59;4824110;28;98114;-63
2021/04/04 02:08:54;;;;;;;5.78;4.68;;;;;;;8.72;54.89;101466.41;4822125;28;127317;-60
2021/04/04 02:11:25;;;;;;;6.80;4.97;;;;;;;8.69;54.79;101466.91;4807210;28;98138;-63
2021/04/04 02:13:51;;;;;;;6.57;4.97;;;;;;;8.67;54.81;101468.97;4805696;28;99015;-63
2021/04/04 02:16:17;;;;;;;6.13;5.03;;;;;;;8.57;54.88;101465.00;4821096;28;116677;-63
2021/04/04 02:18:44;;;;;;;7.10;5.28;;;;;;;8.59;55.11;101462.88;4790245;28;107585;-60
2021/04/04 02:21:10;;;;;;;7.63;5.60;;;;;;;8.60;54.65;101467.19;4823016;28;112617;-63
2021/04/04 02:23:36;;;;;;;7.30;5.65;;;;;;;8.61;54.59;101459.97;4806274;28;104184;-59
2021/04/04 02:26:03;;;;;;;6.95;5.40;;;;;;;8.60;54.72;101464.50;4805588;28;98332;-59
2021/04/04 02:28:30;;;;;;;8.43;5.80;;;;;;;8.59;54.93;101457.50;4820487;28;126245;-59
2021/04/04 02:30:56;;;;;;;7.53;5.60;;;;;;;8.58;54.80;101452.38;4823884;28;97763;-63
2021/04/04 02:33:26;;;;;;;6.25;5.47;;;;;;;8.55;54.83;101452.81;4822657;28;115552;-63
2021/04/04 02:36:06;;;;;;;6.97;5.57;;;;;;;8.50;55.44;101456.22;4808999;28;98502;-60
2021/04/04 02:38:35;;;;;;;7.88;5.63;;;;;;;8.50;54.38;101450.00;4839086;28;117782;-63
2021/04/04 02:41:02;;;;;;;8.07;6.00;;;;;;;8.49;54.76;101454.56;4826356;28;97964;-60
2021/04/04 02:43:29;;;;;;;7.82;5.90;;;;;;;8.49;55.02;101454.56;4808449;28;113483;-63
2021/04/04 02:45:57;;;;;;;8.80;5.90;;;;;;;8.46;54.64;101452.34;4808588;28;98336;-63
2021/04/04 02:48:43;;;;;;;7.72;5.90;;;;;;;8.40;54.94;101453.25;4824525;28;97952;-60
2021/04/04 02:51:09;;;;;;;8.00;5.90;;;;;;;8.44;54.93;101458.97;4823843;28;97938;-63
2021/04/04 02:53:42;;;;;;;7.10;5.80;;;;;;;8.44;54.82;101456.28;4807810;28;113432;-60
2021/04/04 02:56:09;;;;;;;7.72;5.78;;;;;;;8.40;54.50;101450.56;4824869;28;117420;-60
2021/04/04 02:58:35;;;;;;;7.93;5.90;;;;;;;8.43;54.69;101451.97;4808245;28;117013;-60
2021/04/04 03:01:01;;;;;;;7.07;5.85;;;;;;;8.43;54.53;101458.16;4807992;28;109990;-60
2021/04/04 03:03:29;;;;;;;7.13;5.40;;;;;;;8.41;54.78;101454.06;4824503;28;98351;-63
2021/04/04 03:05:57;;;;;;;6.82;5.60;;;;;;;8.40;54.77;101449.75;4808394;28;98337;-60
2021/04/04 03:08:23;;;;;;;7.22;5.90;;;;;;;8.41;54.60;101449.53;4824004;28;97751;-63
2021/04/04 03:10:50;;;;;;;7.45;5.57;;;;;;;8.42;54.66;101444.97;4824896;28;97898;-63
2021/04/04 03:13:18;;;;;;;6.72;5.68;;;;;;;8.44;54.40;101448.22;4804764;29;98319;-60
2021/04/04 03:15:44;;;;;;;7.70;5.80;;;;;;;8.43;54.30;101449.28;4804560;28;98191;-60
2021/04/04 03:18:10;;;;;;;7.75;5.90;;;;;;;8.49;54.15;101446.50;4804618;29;113599;-60
2021/04/04 03:20:36;;;;;;;7.38;5.60;;;;;;;8.49;53.95;101449.19;4816099;28;117295;-60
2021/04/04 03:23:03;;;;;;;8.23;6.18;;;;;;;8.45;53.98;101444.50;4822459;28;120497;-60
2021/04/04 03:25:29;;;;;;;8.02;6.25;;;;;;;8.47;54.32;101440.53;4807634;28;97835;-60
2021/04/04 03:27:55;;;;;;;7.72;6.28;;;;;;;8.45;54.14;101433.75;4823150;28;107235;-60
2021/04/04 03:30:43;;;;;;;7.35;5.88;;;;;;;8.45;53.67;101433.75;4807367;28;116973;-60
2021/04/04 03:33:13;;;;;;;8.77;6.47;;;;;;;8.40;53.65;101428.25;4810791;28;98559;-60
2021/04/04 03:35:40;;;;;;;7.75;6.18;;;;;;;8.41;53.64;101436.09;4825670;28;98282;-60
2021/04/04 03:38:08;;;;;;;7.88;6.43;;;;;;;8.44;53.43;101432.94;4807377;28;98005;-60
2021/04/04 03:40:34;;;;;;;8.75;6.82;;;;;;;8.39;53.83;101426.63;4808091;28;97973;-60
2021/04/04 03:43:02;;;;;;;8.27;6.18;;;;;;;8.34;54.15;101429.97;4823205;28;102923;-63
2021/04/04 03:45:28;;;;;;;10.23;6.85;;;;;;;8.33;53.68;101425.63;4791746;28;98398;-63
2021/04/04 03:47:57;;;;;;;9.05;6.57;;;;;;;8.27;53.89;101422.00;4791400;28;127543;-63
2021/04/04 03:50:23;;;;;;;9.15;7.10;;;;;;;8.30;54.29;101423.41;4823646;28;98367;-60
2021/04/04 03:52:50;;;;;;;8.70;6.55;;;;;;;8.26;53.77;101422.22;4806449;28;122364;-60
2021/04/04 03:55:23;;;;;;;7.72;6.50;;;;;;;8.23;53.85;101425.38;4807224;28;116947;-60
2021/04/04 03:57:50;;;;;;;8.18;6.65;;;;;;;8.26;53.91;101420.34;4822816;28;98249;-63
2021/04/04 04:00:21;;;;;;;8.18;6.18;;;;;;;8.18;54.05;101420.69;4825689;28;98058;-60
2021/04/04 04:02:48;;;;;;;8.38;6.35;;;;;;;8.18;54.04;101423.38;4838546;28;98256;-63
2021/04/04 04:05:16;;;;;;;8.02;5.93;;;;;;;8.18;53.74;101428.75;4824946;28;98323;-60
2021/04/04 04:07:42;;;;;;;8.95;6.43;;;;;;;8.15;53.87;101417.63;4807803;28;98047;-60
2021/04/04 04:10:09;;;;;;;8.13;6.07;;;;;;;8.15;53.87;101421.13;4822145;28;117419;-60
2021/04/04 04:12:35;;;;;;;8.95;6.07;;;;;;;8.17;53.89;101427.09;4822219;28;110410;-60
2021/04/04 04:15:01;;;;;;;9.40;6.13;;;;;;;8.14;54.13;101408.75;4837848;28;115445;-60
2021/04/04 04:17:27;;;;;;;7.10;5.72;;;;;;;8.09;53.79;101409.41;4824633;28;107582;-60
2021/04/04 04:19:53;;;;;;;7.72;5.80;;;;;;;8.04;53.75;101398.56;4807160;28;118257;-60
2021/04/04 04:22:21;;;;;;;7.43;5.50;;;;;;;8.04;53.86;101411.16;4822705;28;113939;-63
2021/04/04 04:24:49;;;;;;;6.40;5.38;;;;;;;8.03;53.78;101404.97;4825194;28;98967;-60
2021/04/04 04:27:16;;;;;;;6.88;5.22;;;;;;;8.02;53.85;101408.72;4824912;28;98318;-64
2021/04/04 04:29:48;;;;;;;7.55;5.60;;;;;;;8.01;53.57;101407.06;4808102;28;99473;-63
2021/04/04 04:32:15;;;;;;;7.40;5.53;;;;;;;7.99;53.73;101402.97;4806946;28;112935;-63
2021/04/04 04:34:42;;;;;;;6.57;5.55;;;;;;;8.00;53.58;101408.09;4791570;28;98758;-59
2021/04/04 04:37:09;;;;;;;6.65;5.57;;;;;;;7.98;53.44;101404.84;4822323;28;100049;-60
2021/04/04 04:39:36;;;;;;;6.68;5.30;;;;;;;7.96;53.76;101403.41;4837981;28;97948;-60
2021/04/04 04:42:02;;;;;;;7.03;5.22;;;;;;;8.00;53.74;101407.28;4807349;28;99479;-60
2021/04/04 04:44:29;;;;;;;6.38;5.45;;;;;;;7.91;53.47;101414.03;4821394;28;127971;-63
2021/04/04 04:46:55;;;;;;;8.68;6.10;;;;;;;7.99;53.46;101411.03;4807661;28;97904;-63
2021/04/04 04:49:21;;;;;;;9.80;6.20;;;;;;;7.99;53.51;101408.34;4806142;28;118800;-60
2021/04/04 04:51:50;;;;;;;7.82;5.93;;;;;;;7.99;53.15;101398.44;4806747;28;108441;-60
2021/04/04 04:54:17;;;;;;;7.72;6.00;;;;;;;7.97;53.54;101405.88;4806796;28;98511;-63
2021/04/04 04:56:43;;;;;;;7.55;5.55;;;;;;;7.99;53.47;101406.47;4822657;28;107610;-60
2021/04/04 04:59:09;;;;;;;8.18;6.05;;;;;;;8.03;53.33;101396.09;4823179;28;97751;-63
2021/04/04 05:01:44;;;;;;;7.60;5.75;;;;;;;7.98;53.69;101390.59;4822808;28;98386;-63
2021/04/04 05:04:10;;;;;;;7.22;6.30;;;;;;;7.98;53.26;101401.34;4806661;28;98470;-63
2021/04/04 05:06:36;;;;;;;7.80;6.13;;;;;;;8.00;53.32;101408.09;4805771;28;126259;-62
2021/04/04 05:09:04;;;;;;;8.07;5.45;;;;;;;8.05;53.18;101402.88;4822392;28;98028;-64
2021/04/04 05:11:31;;;;;;;7.15;5.72;;;;;;;8.06;53.24;101398.34;4822581;28;119464;-63
2021/04/04 05:13:57;;;;;;;6.55;5.53;;;;;;;8.06;53.74;101401.84;4805606;28;121201;-60
2021/04/04 05:16:23;;;;;;;7.50;5.35;;;;;;;8.04;53.83;101409.28;4821959;28;126243;-63
2021/04/04 05:18:50;;;;;;;7.07;5.32;;;;;;;8.12;53.67;101414.34;4822099;28;97689;-63
2021/04/04 05:21:35;;;;;;;8.05;4.82;;;;;;;8.15;53.55;101407.72;4823320;28;115493;-60
2021/04/04 05:24:04;;;;;;;6.28;4.63;;;;;;;8.20;53.65;101412.38;4821647;28;101826;-63
2021/04/04 05:26:32;;;;;;;6.50;4.30;;;;;;;8.22;53.63;101410.31;4820630;28;121324;-63
2021/04/04 05:29:03;;;;;;;5.97;4.80;;;;;;;8.23;54.00;101410.06;4823632;28;97986;-63
2021/04/04 05:31:30;;;;;;;5.70;4.15;;;;;;;8.29;53.50;101413.69;4824429;28;99579;-60
2021/04/04 05:33:56;;;;;;;5.50;4.28;;;;;;;8.37;53.66;101410.75;4823852;28;98735;-63
2021/04/04 05:36:23;;;;;;;6.25;4.10;;;;;;;8.37;53.71;101410.75;4821442;28;124601;-60
2021/04/04 05:38:54;;;;;;;5.38;3.97;;;;;;;8.44;53.85;101406.06;4822940;28;98333;-63
2021/04/04 05:41:20;;;;;;;5.35;3.60;;;;;;;8.55;53.47;101407.94;4822259;28;98588;-60
2021/04/04 05:43:54;;;;;;;3.88;3.25;;;;;;;8.64;53.69;101407.63;4789687;28;123287;-60
2021/04/04 05:46:30;;;;;;;4.40;3.22;;;;;;;8.71;53.13;101413.72;4821922;28;97889;-60
2021/04/04 05:49:17;;;;;;;5.05;2.97;;;;;;;8.83;53.10;101414.53;4806641;28;100121;-60
2021/04/04 05:52:19;;;;;;;5.53;3.30;;;;;;;8.95;53.13;101423.44;4836624;28;101998;-63
2021/04/04 05:55:09;;;;;;;5.15;3.22;;;;;;;9.06;53.36;101425.31;4820338;28;103403;-63
2021/04/04 05:57:52;;;;;;;4.43;3.13;;;;;;;9.20;52.83;101420.53;4818936;28;104150;-60
2021/04/04 06:00:18;;;;;;;4.00;3.17;;;;;;;9.26;53.20;101426.81;4832179;28;98153;-63
2021/04/04 06:03:11;;;;;;;4.45;3.25;;;;;;;9.32;52.85;101424.00;4818857;28;98529;-64
2021/04/04 06:06:34;;;;;;;4.30;2.70;;;;;;;9.40;52.64;101432.78;4837400;28;99135;-63
2021/04/04 06:09:57;;;;;;;3.40;2.80;;;;;;;9.45;52.61;101422.13;4836915;28;98386;-63
2021/04/04 06:12:56;;;;;;;4.18;2.70;;;;;;;9.54;52.96;101421.50;4823733;28;106534;-60
2021/04/04 06:15:56;;;;;;;4.45;3.03;;;;;;;9.58;53.31;101422.66;4833464;28;98515;-64
2021/04/04 06:19:00;;;;;;;3.97;2.72;;;;;;;9.69;52.95;101423.72;4837872;28;98870;-63
2021/04/04 06:22:10;;;;;;;4.30;3.00;;;;;;;9.83;53.24;101418.88;4826191;28;98978;-60
2021/04/04 06:25:25;;;;;;;3.55;2.70;;;;;;;10.01;51.83;101415.97;4825307;28;98142;-63
2021/04/04 06:27:56;;;;;;;6.47;3.10;;;;;;;10.13;52.41;101421.31;4832653;28;98521;-63
2021/04/04 06:33:39;;;;;;;4.78;3.15;;;;;;;10.37;51.85;101415.84;4830389;28;98149;-60
2021/04/04 06:36:37;;;;;;;4.65;2.83;;;;;;;10.47;51.81;101421.44;4826618;28;98336;-63
2021/04/04 06:39:27;;;;;;;4.07;3.00;;;;;;;10.51;52.12;101415.31;4826720;28;98905;-61
2021/04/04 06:42:13;;;;;;;3.33;2.85;;;;;;;10.48;51.80;101406.88;4833902;28;98344;-60
2021/04/04 06:45:25;;;;;;;4.82;3.10;;;;;;;10.55;52.10;101407.53;4838626;28;97977;-60
2021/04/04 06:48:19;;;;;;;4.22;2.85;;;;;;;10.45;52.45;101410.06;4848737;28;99928;-64
2021/04/04 06:51:10;;;;;;;4.47;3.00;;;;;;;10.54;51.53;101405.91;4822848;28;98107;-63
2021/04/04 06:54:00;;;;;;;4.05;3.08;;;;;;;10.64;51.90;101394.47;4809227;28;98695;-63
2021/04/04 06:57:12;;;;;;;4.30;3.33;;;;;;;10.79;51.67;101406.31;4832997;28;98279;-63
2021/04/04 07:00:06;;;;;;;3.73;3.00;;;;;;;10.88;51.06;101406.72;4827868;28;98575;-60
2021/04/04 07:02:52;;;;;;;3.83;3.05;;;;;;;11.01;51.46;101398.31;4828440;28;99076;-60
2021/04/04 07:05:19;;;;;;;4.32;3.13;;;;;;;11.19;51.93;101397.19;4829688;28;106232;-60
2021/04/04 07:08:41;;;;;;;3.95;3.13;;;;;;;11.32;50.35;101387.94;4828371;28;104741;-64
2021/04/04 07:11:16;;;;;;;4.18;3.20;;;;;;;11.45;50.77;101386.75;4824500;28;98317;-64
2021/04/04 07:14:03;;;;;;;4.70;3.22;;;;;;;11.48;51.09;101383.56;4831509;28;98286;-60
2021/04/04 07:17:09;;;;;;;4.60;3.42;;;;;;;11.60;50.42;101381.53;4828266;28;98694;-64
2021/04/04 07:19:56;;;;;;;4.30;3.40;;;;;;;11.62;51.10;101379.38;4833316;28;97878;-63
2021/04/04 07:22:52;;;;;;;4.05;3.08;;;;;;;11.83;49.96;101380.47;4834372;28;97974;-64
2021/04/04 07:26:00;;;;;;;4.35;3.13;;;;;;;11.90;50.13;101372.97;4839990;28;98547;-60
2021/04/04 07:29:03;;;;;;;3.90;3.15;;;;;;;12.01;50.01;101377.41;4836449;28;98892;-64
2021/04/04 07:31:31;;;;;;;4.30;3.17;;;;;;;12.19;49.97;101373.56;4840043;28;97956;-60
2021/04/04 07:34:24;;;;;;;4.65;3.08;;;;;;;12.39;48.97;101377.50;4830868;28;98058;-60
2021/04/04 07:37:11;;;;;;;4.75;3.22;;;;;;;12.70;48.10;101376.69;4837025;28;98972;-60
2021/04/04 07:39:49;;;;;;;4.13;3.35;;;;;;;12.88;47.59;101372.72;4823668;28;98525;-60
2021/04/04 07:42:34;;;;;;;4.38;3.13;;;;;;;13.22;47.80;101367.00;4823139;28;114369;-60
2021/04/04 07:45:22;;;;;;;4.28;3.40;;;;;;;13.53;45.52;101362.56;4838274;28;97936;-60
2021/04/04 07:47:58;;;;;;;4.55;3.00;;;;;;;13.84;44.56;101365.38;4831197;28;98112;-64
2021/04/04 07:50:38;;;;;;;4.75;2.95;;;;;;;14.24;43.95;101362.72;4820938;28;98209;-64
2021/04/04 07:53:29;;;;;;;3.33;2.67;;;;;;;14.74;42.90;101360.28;4853412;28;98192;-64
2021/04/04 07:56:21;;;;;;;3.75;2.85;;;;;;;15.06;42.92;101362.66;4826925;28;98388;-64
2021/04/04 07:58:54;;;;;;;;;;;;;;;16.13;40.51;101353.22;4838586;28;97926;-61
2021/04/04 08:01:48;;;;;;;3.38;2.28;;;;;;;16.28;44.13;101355.00;4836690;28;98045;-60
2021/04/04 08:04:38;;;;;;;3.67;2.60;;;;;;;17.00;42.96;101349.75;4831385;28;98349;-64
2021/04/04 08:07:12;;;;;;;2.70;2.10;;;;;;;17.61;42.25;101346.28;4837924;28;97924;-65
2021/04/04 08:09:58;;;;;;;2.40;2.08;;;;;;;18.20;41.20;101355.00;4832183;28;98984;-61
2021/04/04 08:12:51;;;;;;;3.00;1.95;;;;;;;18.79;40.35;101345.28;4835963;28;98474;-61
2021/04/04 08:15:41;;;;;;;2.42;2.00;;;;;;;19.51;39.67;101345.47;4830209;28;98198;-61
2021/04/04 08:18:07;;;;;;;2.60;1.92;;;;;;;20.19;39.88;101342.88;4829623;28;98231;-61
2021/04/04 08:20:52;;;;;;;2.85;2.10;;;;;;;20.99;39.62;101347.41;4820800;28;128370;-61
2021/04/04 08:23:29;;;;;;;2.78;2.10;;;;;;;21.61;38.68;101335.47;4833756;28;99095;-65
2021/04/04 08:26:04;;;;;;;2.45;1.80;;;;;;;22.24;38.40;101336.00;4834695;28;98558;-65
2021/04/04 08:28:59;;;;;;;3.45;1.95;;;;;;;23.08;37.78;101328.19;4837114;28;109334;-65
2021/04/04 08:31:35;;;;;;;2.50;1.80;;;;;;;23.66;37.06;101329.31;4835774;28;99147;-62
2021/04/04 08:34:33;;;;;;;1.85;1.50;;;;;;;24.55;36.60;101331.75;4832971;28;98172;-65
2021/04/04 08:37:14;;;;;;;3.33;1.50;;;;;;;25.09;36.40;101335.16;4825310;28;120560;-66
2021/04/04 08:39:41;;;;;;;2.17;1.33;;;;;;;25.77;34.60;101334.47;4837286;28;98177;-65
2021/04/04 08:42:07;;;;;;;1.73;1.20;;;;;;;26.37;34.53;101335.41;4818527;28;98563;-66
2021/04/04 08:44:40;;;;;;;1.85;1.20;;;;;;;27.11;33.02;101337.72;4821269;28;117527;-65
2021/04/04 08:47:33;;;;;;;1.70;1.25;;;;;;;28.14;32.73;101339.19;4822291;28;98742;-66
2021/04/04 08:50:17;;;;;;;1.67;1.10;;;;;;;28.67;31.99;101338.59;4825401;28;97772;-66
2021/04/04 08:53:30;;;;;;;1.73;0.90;;;;;;;29.76;28.98;101338.72;4837598;28;98536;-66
2021/04/04 08:55:56;;;;;;;1.35;0.85;;;;;;;30.20;28.37;101338.06;4834641;28;113271;-62
2021/04/04 08:58:28;;;;;;;1.30;0.70;;;;;;;30.68;27.84;101342.88;4838747;28;122427;-60
2021/04/04 09:01:01;;;;;;;1.27;0.75;;;;;;;31.40;26.72;101335.91;4820955;28;97926;-64
2021/04/04 09:03:27;;;;;;;1.65;0.70;;;;;;;32.17;25.92;101340.25;4829432;28;99079;-63
2021/04/04 09:06:06;;;;;;;1.35;0.80;;;;;;;32.61;25.68;101333.56;4834202;28;98483;-60
2021/04/04 09:08:33;;;;;;;1.30;0.77;;;;;;;33.16;25.62;101326.78;4827264;28;98840;-64
2021/04/04 09:10:59;;;;;;;1.67;0.60;;;;;;;33.49;24.29;101327.53;4851820;28;98052;-60
2021/04/04 09:13:29;;;;;;;1.90;0.80;;;;;;;33.79;23.91;101327.00;4833667;28;128566;-60
2021/04/04 09:15:56;;;;;;;1.10;0.68;;;;;;;33.09;25.03;101310.84;4836446;28;100593;-64
2021/04/04 09:18:24;;;;;;;1.17;0.60;;;;;;;33.59;24.87;101309.91;4837072;28;98343;-64
2021/04/04 09:20:51;;;;;;;1.30;0.50;;;;;;;33.72;24.50;101314.66;4821639;28;98128;-64
2021/04/04 09:23:20;;;;;;;1.25;0.60;;;;;;;33.59;24.88;101313.50;4838852;28;98397;-64
2021/04/04 09:26:07;;;;;;;1.02;0.50;;;;;;;34.05;23.86;101301.34;4837869;28;98896;-64
2021/04/04 09:28:39;;;;;;;0.88;0.50;;;;;;;34.26;24.26;101296.78;4819526;28;98141;-60
2021/04/04 09:31:19;;;;;;;1.35;0.60;;;;;;;34.69;23.40;101298.06;4837513;28;98180;-60
2021/04/04 09:34:04;;;;;;;1.30;0.50;;;;;;;35.69;22.58;101292.66;4837541;28;99067;-60
2021/04/04 09:36:41;;;;;;;0.90;0.40;;;;;;;36.55;21.31;101292.19;4836937;28;98615;-65
2021/04/04 09:39:09;;;;;;;1.00;0.40;;;;;;;37.01;20.72;101296.22;4835231;28;98748;-60
2021/04/04 09:41:36;;;;;;;1.13;0.32;;;;;;;37.74;19.95;101300.00;4837108;28;98038;-60
2021/04/04 09:44:04;;;;;;;0.65;0.43;;;;;;;38.03;19.72;101288.91;4832463;28;116037;-60
2021/04/04 09:46:30;;;;;;;0.77;0.40;;;;;;;38.40;19.55;101273.56;4839028;28;98696;-65
2021/04/04 09:48:56;;;;;;;1.35;0.30;;;;;;;39.27;18.54;101272.91;4834783;28;100573;-65
2021/04/04 09:51:22;;;;;;;1.42;0.40;;;;;;;39.52;17.94;101280.59;4825055;28;97814;-60
2021/04/04 09:53:53;;;;;;;1.10;0.30;;;;;;;39.98;17.34;101261.50;4822539;28;128091;-60
2021/04/04 09:56:31;;;;;;;0.82;0.38;;;;;;;40.28;17.36;101260.09;4831273;28;98940;-64
2021/04/04 09:58:57;;;;;;;0.68;0.40;;;;;;;40.16;17.31;101250.41;4832206;28;100890;-64
2021/04/04 10:01:26;;;;;;;0.82;0.40;;;;;;;40.22;17.30;101245.78;4838515;28;98080;-64
2021/04/04 10:04:04;;;;;;;0.98;0.40;;;;;;;40.59;17.04;101234.88;4834725;28;98550;-65
2021/04/04 10:06:32;;;;;;;0.88;0.40;;;;;;;40.48;16.99;101235.25;4834833;28;98498;-64
2021/04/04 10:09:11;;;;;;;0.60;0.38;;;;;;;41.00;16.72;101226.59;4838213;28;98038;-64
2021/04/04 10:11:37;;;;;;;0.90;0.40;;;;;;;41.07;16.37;101221.47;4839093;28;98850;-60
2021/04/04 10:14:14;;;;;;;1.35;0.40;;;;;;;41.09;16.38;101218.97;4830097;28;98997;-64
2021/04/04 10:16:41;;;;;;;2.28;0.50;;;;;;;41.62;15.79;101224.63;4835130;28;99244;-65
2021/04/04 10:19:20;;;;;;;0.70;0.40;;;;;;;41.79;15.55;101211.00;4837374;28;99355;-65
2021/04/04 10:22:00;;;;;;;1.08;0.40;;;;;;;41.92;15.75;101206.03;4837181;28;98301;-64
2021/04/04 10:24:31;;;;;;;0.73;0.30;;;;;;;41.59;15.65;101214.22;4831687;28;99499;-64
2021/04/04 10:27:29;;;;;;;0.73;0.32;;;;;;;42.24;15.28;101206.75;4834587;28;98871;-60
2021/04/04 10:30:19;;;;;;;1.02;0.50;;;;;;;43.04;14.55;101185.78;4836538;28;98042;-65
2021/04/04 10:32:47;;;;;;;0.80;0.40;;;;;;;42.83;14.55;101200.94;4834847;28;98047;-65
2021/04/04 10:35:28;;;;;;;0.82;0.40;;;;;;;42.26;15.24;101183.63;4836206;28;112710;-65
2021/04/04 10:38:06;;;;;;;1.95;0.50;;;;;;;42.74;14.39;101179.09;4827022;28;98243;-64
2021/04/04 10:40:50;;;;;;;0.80;0.40;;;;;;;43.20;14.30;101175.41;4833583;28;108210;-61
2021/04/04 10:43:19;;;;;;;1.02;0.45;;;;;;;43.02;14.22;101168.47;4837908;28;98306;-65
2021/04/04 10:46:19;;;;;;;0.80;0.40;;;;;;;43.40;14.10;101163.50;4838810;28;98592;-65
2021/04/04 10:48:48;;;;;;;0.97;0.30;;;;;;;43.14;14.12;101161.06;4828467;28;98650;-60
2021/04/04 10:51:18;;;;;;;0.80;0.30;;;;;;;42.95;14.40;101156.69;4834693;28;120920;-60
2021/04/04 10:53:48;;;;;;;1.30;0.32;;;;;;;42.61;14.35;101150.91;4829342;28;98101;-64
2021/04/04 10:56:15;;;;;;;0.70;0.40;;;;;;;42.57;14.73;101146.66;4836140;28;98860;-65
2021/04/04 10:58:41;;;;;;;0.80;0.30;;;;;;;41.98;15.38;101138.31;4836230;28;98399;-60
2021/04/04 11:01:10;;;;;;;1.42;0.40;;;;;;;41.62;15.43;101138.97;4840492;28;98815;-60
2021/04/04 11:03:37;;;;;;;1.33;0.40;;;;;;;41.26;15.61;101136.75;4840071;28;98155;-60
2021/04/04 11:06:03;;;;;;;1.25;0.30;;;;;;;40.85;15.86;101130.25;4831271;28;126361;-60
2021/04/04 11:08:29;;;;;;;1.52;0.40;;;;;;;40.65;16.36;101120.09;4836260;28;98984;-64
2021/04/04 11:10:55;;;;;;;0.90;0.40;;;;;;;40.59;16.35;101121.13;4835721;28;128280;-64
2021/04/04 11:13:22;;;;;;;0.70;0.22;;;;;;;40.71;16.28;101121.06;4839276;28;99715;-60
2021/04/04 11:15:59;;;;;;;1.00;0.30;;;;;;;41.01;15.96;101115.94;4833246;28;99211;-65
2021/04/04 11:18:48;;;;;;;0.60;0.20;;;;;;;41.70;15.32;101111.97;4832879;28;98407;-60
2021/04/04 11:21:30;;;;;;;1.00;0.30;;;;;;;41.85;15.49;101106.50;4833644;28;98299;-64
2021/04/04 11:23:57;;;;;;;1.45;0.30;;;;;;;41.96;15.03;101109.66;4820211;28;98044;-60
2021/04/04 11:26:27;;;;;;;0.88;0.30;;;;;;;41.72;15.38;101103.00;4836144;28;98524;-60
2021/04/04 11:29:13;;;;;;;0.60;0.20;;;;;;;41.77;15.41;101097.50;4833695;28;98158;-60
2021/04/04 11:31:41;;;;;;;1.75;0.30;;;;;;;41.12;15.86;101101.38;4839853;28;99012;-60
2021/04/04 11:34:28;;;;;;;1.90;0.20;;;;;;;41.07;16.06;101099.16;4823472;28;98174;-65
2021/04/04 11:36:55;;;;;;;1.90;0.20;;;;;;;40.82;16.11;101089.59;4825416;28;98125;-65
2021/04/04 11:39:21;;;;;;;1.38;0.30;;;;;;;40.75;16.40;101097.53;4838637;28;98350;-65
2021/04/04 11:41:56;;;;;;;0.68;0.20;;;;;;;40.68;16.54;101081.69;4834937;28;98270;-64
2021/04/04 11:44:27;;;;;;;0.75;0.30;;;;;;;40.42;16.75;101069.69;4817606;28;99110;-60
2021/04/04 11:46:56;;;;;;;0.77;0.20;;;;;;;40.24;16.85;101065.47;4838248;28;98276;-65
2021/04/04 11:49:38;;;;;;;0.93;0.20;;;;;;;38.98;18.09;101072.88;4837302;28;98921;-60
2021/04/04 11:52:10;;;;;;;1.17;0.20;;;;;;;39.08;17.71;101066.13;4830608;28;97954;-65
2021/04/04 11:54:45;;;;;;;0.95;0.20;;;;;;;39.08;17.86;101059.69;4836163;28;97951;-64
2021/04/04 11:57:12;;;;;;;0.98;0.20;;;;;;;38.88;18.13;101054.28;4840543;28;98570;-60
2021/04/04 11:59:38;;;;;;;0.68;0.20;;;;;;;37.73;19.31;101054.59;4830543;28;119770;-64
2021/04/04 12:02:05;;;;;;;0.98;0.20;;;;;;;37.32;19.50;101053.16;4831867;28;113085;-64
2021/04/04 12:07:13;;;;;;;0.82;0.20;;;;;;;37.06;19.86;101045.72;4833381;28;98532;-60